sensor_id;sensor_type;location;lat;lon;timestamp;temperature;humidity
4453;DHT22;2239;48.152;11.584;2024-02-28T00:00:28;7.20;99.90
4453;DHT22;2239;48.152;11.584;2024-02-28T00:02:54;7.20;99.90
4453;DHT22;2239;48.152;11.584;2024-02-28T00:05:19;7.20;99.90
4453;DHT22;2239;48.152;11.584;2024-02-28T00:07:45;7.20;99.90
4453;DHT22;2239;48.152;11.584;2024-02-28T00:10:24;7.20;99.90
4453;DHT22;2239;48.152;11.584;2024-02-28T00:12:49;7.10;99.90
4453;DHT22;2239;48.152;11.584;2024-02-28T00:15:15;7.10;99.90
4453;DHT22;2239;48.152;11.584;2024-02-28T00:17:41;7.20;99.90
4453;DHT22;2239;48.152;11.584;2024-02-28T00:20:08;7.20;99.90
4453;DHT22;2239;48.152;11.584;2024-02-28T00:22:35;7.20;99.90
4453;DHT22;2239;48.152;11.584;2024-02-28T00:25:02;7.20;99.90
4453;DHT22;2239;48.152;11.584;2024-02-28T00:27:27;7.20;99.90
4453;DHT22;2239;48.152;11.584;2024-02-28T00:29:53;7.20;99.90
4453;DHT22;2239;48.152;11.584;2024-02-28T00:32:18;7.20;99.90
4453;DHT22;2239;48.152;11.584;2024-02-28T00:34:44;7.10;99.90
4453;DHT22;2239;48.152;11.584;2024-02-28T00:37:10;7.10;99.90
4453;DHT22;2239;48.152;11.584;2024-02-28T00:39:35;7.10;99.90
4453;DHT22;2239;48.152;11.584;2024-02-28T00:42:01;7.10;99.90
4453;DHT22;2239;48.152;11.584;2024-02-28T00:44:26;7.10;99.90
4453;DHT22;2239;48.152;11.584;2024-02-28T00:46:52;7.00;99.90
4453;DHT22;2239;48.152;11.584;2024-02-28T00:49:17;6.90;99.90
4453;DHT22;2239;48.152;11.584;2024-02-28T00:51:43;6.90;99.90
4453;DHT22;2239;48.152;11.584;2024-02-28T00:54:09;6.90;99.90
4453;DHT22;2239;48.152;11.584;2024-02-28T00:56:34;6.90;99.90
4453;DHT22;2239;48.152;11.584;2024-02-28T00:59:00;6.90;99.90
4453;DHT22;2239;48.152;11.584;2024-02-28T01:01:25;7.00;99.90
4453;DHT22;2239;48.152;11.584;2024-02-28T01:03:51;7.00;99.90
4453;DHT22;2239;48.152;11.584;2024-02-28T01:06:16;7.00;99.90
4453;DHT22;2239;48.152;11.584;2024-02-28T01:08:42;7.00;99.90
4453;DHT22;2239;48.152;11.584;2024-02-28T01:11:08;7.00;99.90
4453;DHT22;2239;48.152;11.584;2024-02-28T01:13:33;7.10;99.90
4453;DHT22;2239;48.152;11.584;2024-02-28T01:15:59;7.10;99.90
4453;DHT22;2239;48.152;11.584;2024-02-28T01:18:25;7.10;99.90
4453;DHT22;2239;48.152;11.584;2024-02-28T01:20:51;7.10;99.90
4453;DHT22;2239;48.152;11.584;2024-02-28T01:23:17;7.20;99.90
4453;DHT22;2239;48.152;11.584;2024-02-28T01:25:43;7.10;99.90
4453;DHT22;2239;48.152;11.584;2024-02-28T01:28:08;7.10;99.90
4453;DHT22;2239;48.152;11.584;2024-02-28T01:30:34;7.10;99.90
4453;DHT22;2239;48.152;11.584;2024-02-28T01:32:59;7.10;99.90
4453;DHT22;2239;48.152;11.584;2024-02-28T01:35:25;7.10;99.90
4453;DHT22;2239;48.152;11.584;2024-02-28T01:37:51;7.10;99.90
4453;DHT22;2239;48.152;11.584;2024-02-28T01:40:17;7.10;99.90
4453;DHT22;2239;48.152;11.584;2024-02-28T01:42:44;7.10;99.90
4453;DHT22;2239;48.152;11.584;2024-02-28T01:45:13;7.20;99.90
4453;DHT22;2239;48.152;11.584;2024-02-28T01:47:39;7.20;99.90
4453;DHT22;2239;48.152;11.584;2024-02-28T01:50:05;7.10;99.90
4453;DHT22;2239;48.152;11.584;2024-02-28T01:52:32;7.10;99.90
4453;DHT22;2239;48.152;11.584;2024-02-28T01:54:58;7.10;99.90
4453;DHT22;2239;48.152;11.584;2024-02-28T01:57:24;7.10;99.90
4453;DHT22;2239;48.152;11.584;2024-02-28T01:59:49;7.10;99.90
4453;DHT22;2239;48.152;11.584;2024-02-28T02:02:15;7.10;99.90
4453;DHT22;2239;48.152;11.584;2024-02-28T02:04:40;7.10;99.90
4453;DHT22;2239;48.152;11.584;2024-02-28T02:07:06;7.10;99.90
4453;DHT22;2239;48.152;11.584;2024-02-28T02:09:33;7.10;99.90
4453;DHT22;2239;48.152;11.584;2024-02-28T02:11:59;7.10;99.90
4453;DHT22;2239;48.152;11.584;2024-02-28T02:14:25;7.10;99.90
4453;DHT22;2239;48.152;11.584;2024-02-28T02:16:51;7.10;99.90
4453;DHT22;2239;48.152;11.584;2024-02-28T02:19:16;7.10;99.90
4453;DHT22;2239;48.152;11.584;2024-02-28T02:21:49;7.10;99.90
4453;DHT22;2239;48.152;11.584;2024-02-28T02:24:17;7.10;99.90
4453;DHT22;2239;48.152;11.584;2024-02-28T02:26:43;7.00;99.90
4453;DHT22;2239;48.152;11.584;2024-02-28T02:29:11;7.00;99.90
4453;DHT22;2239;48.152;11.584;2024-02-28T02:31:36;7.00;99.90
4453;DHT22;2239;48.152;11.584;2024-02-28T02:34:02;6.90;99.90
4453;DHT22;2239;48.152;11.584;2024-02-28T02:36:27;6.90;99.90
4453;DHT22;2239;48.152;11.584;2024-02-28T02:38:53;6.90;99.90
4453;DHT22;2239;48.152;11.584;2024-02-28T02:41:18;6.90;99.90
4453;DHT22;2239;48.152;11.584;2024-02-28T02:43:44;6.90;99.90
4453;DHT22;2239;48.152;11.584;2024-02-28T02:46:09;6.90;99.90
4453;DHT22;2239;48.152;11.584;2024-02-28T02:48:35;6.90;99.90
4453;DHT22;2239;48.152;11.584;2024-02-28T02:51:00;6.80;99.90
4453;DHT22;2239;48.152;11.584;2024-02-28T02:53:26;6.90;99.90
4453;DHT22;2239;48.152;11.584;2024-02-28T02:55:52;6.80;99.90
4453;DHT22;2239;48.152;11.584;2024-02-28T02:58:19;6.80;99.90
4453;DHT22;2239;48.152;11.584;2024-02-28T03:00:44;6.90;99.90
4453;DHT22;2239;48.152;11.584;2024-02-28T03:03:10;6.80;99.90
4453;DHT22;2239;48.152;11.584;2024-02-28T03:05:35;6.80;99.90
4453;DHT22;2239;48.152;11.584;2024-02-28T03:08:01;6.80;99.90
4453;DHT22;2239;48.152;11.584;2024-02-28T03:10:27;6.80;99.90
4453;DHT22;2239;48.152;11.584;2024-02-28T03:12:54;6.80;99.90
4453;DHT22;2239;48.152;11.584;2024-02-28T03:15:19;6.70;99.90
4453;DHT22;2239;48.152;11.584;2024-02-28T03:17:45;6.70;99.90
4453;DHT22;2239;48.152;11.584;2024-02-28T03:20:11;6.60;99.90
4453;DHT22;2239;48.152;11.584;2024-02-28T03:22:38;6.60;99.90
4453;DHT22;2239;48.152;11.584;2024-02-28T03:25:04;6.60;99.90
4453;DHT22;2239;48.152;11.584;2024-02-28T03:27:30;6.60;99.90
4453;DHT22;2239;48.152;11.584;2024-02-28T03:29:56;6.60;99.90
4453;DHT22;2239;48.152;11.584;2024-02-28T03:32:21;6.60;99.90
4453;DHT22;2239;48.152;11.584;2024-02-28T03:34:47;6.50;99.90
4453;DHT22;2239;48.152;11.584;2024-02-28T03:37:13;6.50;99.90
4453;DHT22;2239;48.152;11.584;2024-02-28T03:39:39;6.40;99.90
4453;DHT22;2239;48.152;11.584;2024-02-28T03:42:04;6.40;99.90
4453;DHT22;2239;48.152;11.584;2024-02-28T03:44:30;6.40;99.90
4453;DHT22;2239;48.152;11.584;2024-02-28T03:46:55;6.30;99.90
4453;DHT22;2239;48.152;11.584;2024-02-28T03:49:21;6.30;99.90
4453;DHT22;2239;48.152;11.584;2024-02-28T03:51:46;6.30;99.90
4453;DHT22;2239;48.152;11.584;2024-02-28T03:54:12;6.30;99.90
4453;DHT22;2239;48.152;11.584;2024-02-28T03:56:38;6.40;99.90
4453;DHT22;2239;48.152;11.584;2024-02-28T03:59:03;6.40;99.90
4453;DHT22;2239;48.152;11.584;2024-02-28T04:01:29;6.40;99.90
4453;DHT22;2239;48.152;11.584;2024-02-28T04:03:55;6.40;99.90
4453;DHT22;2239;48.152;11.584;2024-02-28T04:06:21;6.40;99.90
4453;DHT22;2239;48.152;11.584;2024-02-28T04:08:46;6.40;99.90
4453;DHT22;2239;48.152;11.584;2024-02-28T04:11:12;6.40;99.90
4453;DHT22;2239;48.152;11.584;2024-02-28T04:13:37;6.40;99.90
4453;DHT22;2239;48.152;11.584;2024-02-28T04:16:03;6.40;99.90
4453;DHT22;2239;48.152;11.584;2024-02-28T04:18:29;6.40;99.90
4453;DHT22;2239;48.152;11.584;2024-02-28T04:20:55;6.40;99.90
4453;DHT22;2239;48.152;11.584;2024-02-28T04:23:21;6.40;99.90
4453;DHT22;2239;48.152;11.584;2024-02-28T04:25:46;6.40;99.90
4453;DHT22;2239;48.152;11.584;2024-02-28T04:28:12;6.50;99.90
4453;DHT22;2239;48.152;11.584;2024-02-28T04:30:37;6.50;99.90
4453;DHT22;2239;48.152;11.584;2024-02-28T04:33:03;6.50;99.90
4453;DHT22;2239;48.152;11.584;2024-02-28T04:35:29;6.50;99.90
4453;DHT22;2239;48.152;11.584;2024-02-28T04:37:54;6.50;99.90
4453;DHT22;2239;48.152;11.584;2024-02-28T04:40:23;6.50;99.90
4453;DHT22;2239;48.152;11.584;2024-02-28T04:42:48;6.50;99.90
4453;DHT22;2239;48.152;11.584;2024-02-28T04:45:14;6.40;99.90
4453;DHT22;2239;48.152;11.584;2024-02-28T04:47:39;6.50;99.90
4453;DHT22;2239;48.152;11.584;2024-02-28T04:50:05;6.50;99.90
4453;DHT22;2239;48.152;11.584;2024-02-28T04:52:34;6.40;99.90
4453;DHT22;2239;48.152;11.584;2024-02-28T04:55:00;6.40;99.90
4453;DHT22;2239;48.152;11.584;2024-02-28T04:57:25;6.30;99.90
4453;DHT22;2239;48.152;11.584;2024-02-28T04:59:51;6.20;99.90
4453;DHT22;2239;48.152;11.584;2024-02-28T05:02:16;6.20;99.90
4453;DHT22;2239;48.152;11.584;2024-02-28T05:04:42;6.20;99.90
4453;DHT22;2239;48.152;11.584;2024-02-28T05:07:08;6.20;99.90
4453;DHT22;2239;48.152;11.584;2024-02-28T05:09:34;6.20;99.90
4453;DHT22;2239;48.152;11.584;2024-02-28T05:12:01;6.20;99.90
4453;DHT22;2239;48.152;11.584;2024-02-28T05:14:26;6.30;99.90
4453;DHT22;2239;48.152;11.584;2024-02-28T05:16:52;6.30;99.90
4453;DHT22;2239;48.152;11.584;2024-02-28T05:19:17;6.30;99.90
4453;DHT22;2239;48.152;11.584;2024-02-28T05:21:44;6.30;99.90
4453;DHT22;2239;48.152;11.584;2024-02-28T05:24:10;6.30;99.90
4453;DHT22;2239;48.152;11.584;2024-02-28T05:26:36;6.40;99.90
4453;DHT22;2239;48.152;11.584;2024-02-28T05:29:02;6.40;99.90
4453;DHT22;2239;48.152;11.584;2024-02-28T05:31:29;6.40;99.90
4453;DHT22;2239;48.152;11.584;2024-02-28T05:33:56;6.40;99.90
4453;DHT22;2239;48.152;11.584;2024-02-28T05:36:26;6.40;99.90
4453;DHT22;2239;48.152;11.584;2024-02-28T05:38:53;6.40;99.90
4453;DHT22;2239;48.152;11.584;2024-02-28T05:41:19;6.40;99.90
4453;DHT22;2239;48.152;11.584;2024-02-28T05:43:45;6.40;99.90
4453;DHT22;2239;48.152;11.584;2024-02-28T05:46:11;6.50;99.90
4453;DHT22;2239;48.152;11.584;2024-02-28T05:48:37;6.50;99.90
4453;DHT22;2239;48.152;11.584;2024-02-28T05:51:02;6.50;99.90
4453;DHT22;2239;48.152;11.584;2024-02-28T05:53:29;6.60;99.90
4453;DHT22;2239;48.152;11.584;2024-02-28T05:55:58;6.50;99.90
4453;DHT22;2239;48.152;11.584;2024-02-28T05:58:23;6.50;99.90
4453;DHT22;2239;48.152;11.584;2024-02-28T06:00:51;6.50;99.90
4453;DHT22;2239;48.152;11.584;2024-02-28T06:03:16;6.50;99.90
4453;DHT22;2239;48.152;11.584;2024-02-28T06:05:42;6.50;99.90
4453;DHT22;2239;48.152;11.584;2024-02-28T06:08:07;6.50;99.90
4453;DHT22;2239;48.152;11.584;2024-02-28T06:10:33;6.50;99.90
4453;DHT22;2239;48.152;11.584;2024-02-28T06:12:58;6.50;99.90
4453;DHT22;2239;48.152;11.584;2024-02-28T06:15:25;6.40;99.90
4453;DHT22;2239;48.152;11.584;2024-02-28T06:17:51;6.50;99.90
4453;DHT22;2239;48.152;11.584;2024-02-28T06:20:16;6.40;99.90
4453;DHT22;2239;48.152;11.584;2024-02-28T06:22:42;6.40;99.90
4453;DHT22;2239;48.152;11.584;2024-02-28T06:25:08;6.40;99.90
4453;DHT22;2239;48.152;11.584;2024-02-28T06:27:43;6.50;99.90
4453;DHT22;2239;48.152;11.584;2024-02-28T06:30:09;6.50;99.90
4453;DHT22;2239;48.152;11.584;2024-02-28T06:32:34;6.50;99.90
4453;DHT22;2239;48.152;11.584;2024-02-28T06:35:00;6.50;99.90
4453;DHT22;2239;48.152;11.584;2024-02-28T06:37:26;6.50;99.90
4453;DHT22;2239;48.152;11.584;2024-02-28T06:39:51;6.50;99.90
4453;DHT22;2239;48.152;11.584;2024-02-28T06:42:18;6.50;99.90
4453;DHT22;2239;48.152;11.584;2024-02-28T06:44:44;6.50;99.90
4453;DHT22;2239;48.152;11.584;2024-02-28T06:47:09;6.50;99.90
4453;DHT22;2239;48.152;11.584;2024-02-28T06:49:35;6.50;99.90
4453;DHT22;2239;48.152;11.584;2024-02-28T06:52:01;6.50;99.90
4453;DHT22;2239;48.152;11.584;2024-02-28T06:54:27;6.40;99.90
4453;DHT22;2239;48.152;11.584;2024-02-28T06:56:54;6.50;99.90
4453;DHT22;2239;48.152;11.584;2024-02-28T06:59:20;6.50;99.90
4453;DHT22;2239;48.152;11.584;2024-02-28T07:01:45;6.50;99.90
4453;DHT22;2239;48.152;11.584;2024-02-28T07:04:11;6.40;99.90
4453;DHT22;2239;48.152;11.584;2024-02-28T07:06:37;6.40;99.90
4453;DHT22;2239;48.152;11.584;2024-02-28T07:09:02;6.40;99.90
4453;DHT22;2239;48.152;11.584;2024-02-28T07:11:28;6.30;99.90
4453;DHT22;2239;48.152;11.584;2024-02-28T07:13:54;6.30;99.90
4453;DHT22;2239;48.152;11.584;2024-02-28T07:16:22;6.30;99.90
4453;DHT22;2239;48.152;11.584;2024-02-28T07:18:48;6.20;99.90
4453;DHT22;2239;48.152;11.584;2024-02-28T07:21:13;6.30;99.90
4453;DHT22;2239;48.152;11.584;2024-02-28T07:23:40;6.20;99.90
4453;DHT22;2239;48.152;11.584;2024-02-28T07:26:13;6.30;99.90
4453;DHT22;2239;48.152;11.584;2024-02-28T07:28:39;6.30;99.90
4453;DHT22;2239;48.152;11.584;2024-02-28T07:31:04;6.40;99.90
4453;DHT22;2239;48.152;11.584;2024-02-28T07:33:30;6.40;99.90
4453;DHT22;2239;48.152;11.584;2024-02-28T07:35:56;6.40;99.90
4453;DHT22;2239;48.152;11.584;2024-02-28T07:38:26;6.50;99.90
4453;DHT22;2239;48.152;11.584;2024-02-28T07:40:53;6.50;99.90
4453;DHT22;2239;48.152;11.584;2024-02-28T07:43:18;6.40;99.90
4453;DHT22;2239;48.152;11.584;2024-02-28T07:45:44;6.40;99.90
4453;DHT22;2239;48.152;11.584;2024-02-28T07:48:09;6.40;99.90
4453;DHT22;2239;48.152;11.584;2024-02-28T07:50:35;6.50;99.90
4453;DHT22;2239;48.152;11.584;2024-02-28T07:53:00;6.50;99.90
4453;DHT22;2239;48.152;11.584;2024-02-28T07:55:26;6.60;99.90
4453;DHT22;2239;48.152;11.584;2024-02-28T07:57:52;6.60;99.90
4453;DHT22;2239;48.152;11.584;2024-02-28T08:00:18;6.60;99.90
4453;DHT22;2239;48.152;11.584;2024-02-28T08:02:45;6.60;99.90
4453;DHT22;2239;48.152;11.584;2024-02-28T08:05:11;6.70;99.90
4453;DHT22;2239;48.152;11.584;2024-02-28T08:07:36;6.70;99.90
4453;DHT22;2239;48.152;11.584;2024-02-28T08:10:03;6.70;99.90
4453;DHT22;2239;48.152;11.584;2024-02-28T08:12:31;6.80;99.90
4453;DHT22;2239;48.152;11.584;2024-02-28T08:14:57;6.80;99.90
4453;DHT22;2239;48.152;11.584;2024-02-28T08:17:23;6.80;99.90
4453;DHT22;2239;48.152;11.584;2024-02-28T08:19:48;6.80;99.90
4453;DHT22;2239;48.152;11.584;2024-02-28T08:22:14;6.80;99.90
4453;DHT22;2239;48.152;11.584;2024-02-28T08:24:39;6.80;99.90
4453;DHT22;2239;48.152;11.584;2024-02-28T08:27:05;6.90;99.90
4453;DHT22;2239;48.152;11.584;2024-02-28T08:29:31;6.80;99.90
4453;DHT22;2239;48.152;11.584;2024-02-28T08:31:58;6.90;99.90
4453;DHT22;2239;48.152;11.584;2024-02-28T08:34:24;6.90;99.90
4453;DHT22;2239;48.152;11.584;2024-02-28T08:36:50;6.90;99.90
4453;DHT22;2239;48.152;11.584;2024-02-28T08:39:17;7.00;99.90
4453;DHT22;2239;48.152;11.584;2024-02-28T08:41:43;7.00;99.90
4453;DHT22;2239;48.152;11.584;2024-02-28T08:44:08;7.00;99.90
4453;DHT22;2239;48.152;11.584;2024-02-28T08:46:34;7.00;99.90
4453;DHT22;2239;48.152;11.584;2024-02-28T08:48:59;6.90;99.90
4453;DHT22;2239;48.152;11.584;2024-02-28T08:51:25;6.90;99.90
4453;DHT22;2239;48.152;11.584;2024-02-28T08:53:50;7.00;99.90
4453;DHT22;2239;48.152;11.584;2024-02-28T08:56:18;7.10;99.90
4453;DHT22;2239;48.152;11.584;2024-02-28T08:58:43;7.00;99.90
4453;DHT22;2239;48.152;11.584;2024-02-28T09:01:13;7.00;99.90
4453;DHT22;2239;48.152;11.584;2024-02-28T09:03:40;7.00;99.90
4453;DHT22;2239;48.152;11.584;2024-02-28T09:06:06;7.00;99.90
4453;DHT22;2239;48.152;11.584;2024-02-28T09:08:31;7.00;99.90
4453;DHT22;2239;48.152;11.584;2024-02-28T09:10:58;7.00;99.90
4453;DHT22;2239;48.152;11.584;2024-02-28T09:13:23;7.00;99.90
4453;DHT22;2239;48.152;11.584;2024-02-28T09:15:49;7.00;99.90
4453;DHT22;2239;48.152;11.584;2024-02-28T09:18:14;7.00;99.90
4453;DHT22;2239;48.152;11.584;2024-02-28T09:20:40;7.10;99.90
4453;DHT22;2239;48.152;11.584;2024-02-28T09:23:06;7.20;99.90
4453;DHT22;2239;48.152;11.584;2024-02-28T09:25:32;7.20;99.90
4453;DHT22;2239;48.152;11.584;2024-02-28T09:27:58;7.30;99.90
4453;DHT22;2239;48.152;11.584;2024-02-28T09:30:25;7.30;99.90
4453;DHT22;2239;48.152;11.584;2024-02-28T09:32:51;7.40;99.90
4453;DHT22;2239;48.152;11.584;2024-02-28T09:35:17;7.40;99.90
4453;DHT22;2239;48.152;11.584;2024-02-28T09:37:42;7.40;99.90
4453;DHT22;2239;48.152;11.584;2024-02-28T09:40:09;7.50;99.90
4453;DHT22;2239;48.152;11.584;2024-02-28T09:42:36;7.50;99.90
4453;DHT22;2239;48.152;11.584;2024-02-28T09:45:02;7.50;99.90
4453;DHT22;2239;48.152;11.584;2024-02-28T09:47:29;7.50;99.90
4453;DHT22;2239;48.152;11.584;2024-02-28T09:49:57;7.50;99.90
4453;DHT22;2239;48.152;11.584;2024-02-28T09:52:26;7.40;99.90
4453;DHT22;2239;48.152;11.584;2024-02-28T09:54:53;7.40;99.90
4453;DHT22;2239;48.152;11.584;2024-02-28T09:57:18;7.30;99.90
4453;DHT22;2239;48.152;11.584;2024-02-28T09:59:44;7.40;99.90
4453;DHT22;2239;48.152;11.584;2024-02-28T10:02:10;7.50;99.90
4453;DHT22;2239;48.152;11.584;2024-02-28T10:04:37;7.60;99.90
4453;DHT22;2239;48.152;11.584;2024-02-28T10:07:15;7.60;99.90
4453;DHT22;2239;48.152;11.584;2024-02-28T10:09:42;7.70;99.90
4453;DHT22;2239;48.152;11.584;2024-02-28T10:12:07;7.90;99.90
4453;DHT22;2239;48.152;11.584;2024-02-28T10:14:33;8.00;99.90
4453;DHT22;2239;48.152;11.584;2024-02-28T10:16:59;8.00;99.90
4453;DHT22;2239;48.152;11.584;2024-02-28T10:19:25;8.00;99.90
4453;DHT22;2239;48.152;11.584;2024-02-28T10:21:51;8.00;99.90
4453;DHT22;2239;48.152;11.584;2024-02-28T10:24:16;8.00;99.90
4453;DHT22;2239;48.152;11.584;2024-02-28T10:26:44;8.00;99.90
4453;DHT22;2239;48.152;11.584;2024-02-28T10:29:09;8.10;99.90
4453;DHT22;2239;48.152;11.584;2024-02-28T10:31:35;8.10;99.90
4453;DHT22;2239;48.152;11.584;2024-02-28T10:34:02;8.10;99.90
4453;DHT22;2239;48.152;11.584;2024-02-28T10:36:31;8.10;99.90
4453;DHT22;2239;48.152;11.584;2024-02-28T10:38:57;8.00;99.90
4453;DHT22;2239;48.152;11.584;2024-02-28T10:41:25;8.00;99.90
4453;DHT22;2239;48.152;11.584;2024-02-28T10:43:51;8.00;99.90
4453;DHT22;2239;48.152;11.584;2024-02-28T10:46:23;8.00;99.90
4453;DHT22;2239;48.152;11.584;2024-02-28T10:48:50;8.00;99.90
4453;DHT22;2239;48.152;11.584;2024-02-28T10:51:20;8.00;99.90
4453;DHT22;2239;48.152;11.584;2024-02-28T10:53:50;8.00;99.90
4453;DHT22;2239;48.152;11.584;2024-02-28T10:56:20;8.00;99.90
4453;DHT22;2239;48.152;11.584;2024-02-28T10:58:52;8.10;99.90
4453;DHT22;2239;48.152;11.584;2024-02-28T11:01:18;8.20;99.90
4453;DHT22;2239;48.152;11.584;2024-02-28T11:03:44;8.30;99.90
4453;DHT22;2239;48.152;11.584;2024-02-28T11:06:17;8.30;99.90
4453;DHT22;2239;48.152;11.584;2024-02-28T11:08:46;8.40;99.90
4453;DHT22;2239;48.152;11.584;2024-02-28T11:11:14;8.50;99.90
4453;DHT22;2239;48.152;11.584;2024-02-28T11:13:51;8.50;99.90
4453;DHT22;2239;48.152;11.584;2024-02-28T11:16:18;8.50;99.90
4453;DHT22;2239;48.152;11.584;2024-02-28T11:18:50;8.50;99.90
4453;DHT22;2239;48.152;11.584;2024-02-28T11:21:16;8.50;99.90
4453;DHT22;2239;48.152;11.584;2024-02-28T11:23:46;8.50;99.90
4453;DHT22;2239;48.152;11.584;2024-02-28T11:26:12;8.40;99.90
4453;DHT22;2239;48.152;11.584;2024-02-28T11:28:38;8.40;99.90
4453;DHT22;2239;48.152;11.584;2024-02-28T11:31:05;8.30;99.90
4453;DHT22;2239;48.152;11.584;2024-02-28T11:33:31;8.20;99.90
4453;DHT22;2239;48.152;11.584;2024-02-28T11:35:59;8.10;99.90
4453;DHT22;2239;48.152;11.584;2024-02-28T11:38:25;8.10;99.90
4453;DHT22;2239;48.152;11.584;2024-02-28T11:40:51;8.10;99.90
4453;DHT22;2239;48.152;11.584;2024-02-28T11:43:17;8.00;99.90
4453;DHT22;2239;48.152;11.584;2024-02-28T11:45:44;7.90;99.90
4453;DHT22;2239;48.152;11.584;2024-02-28T11:48:15;7.80;99.90
4453;DHT22;2239;48.152;11.584;2024-02-28T11:50:41;7.70;99.90
4453;DHT22;2239;48.152;11.584;2024-02-28T11:53:08;7.60;99.90
4453;DHT22;2239;48.152;11.584;2024-02-28T11:55:34;7.60;99.90
4453;DHT22;2239;48.152;11.584;2024-02-28T11:57:59;7.50;99.90
4453;DHT22;2239;48.152;11.584;2024-02-28T12:00:26;7.50;99.90
4453;DHT22;2239;48.152;11.584;2024-02-28T12:02:51;7.50;99.90
4453;DHT22;2239;48.152;11.584;2024-02-28T12:05:19;7.50;99.90
4453;DHT22;2239;48.152;11.584;2024-02-28T12:07:45;7.50;99.90
4453;DHT22;2239;48.152;11.584;2024-02-28T12:10:11;7.50;99.90
4453;DHT22;2239;48.152;11.584;2024-02-28T12:12:38;7.50;99.90
4453;DHT22;2239;48.152;11.584;2024-02-28T12:15:05;7.50;99.90
4453;DHT22;2239;48.152;11.584;2024-02-28T12:17:31;7.60;99.90
4453;DHT22;2239;48.152;11.584;2024-02-28T12:19:59;7.60;99.90
4453;DHT22;2239;48.152;11.584;2024-02-28T12:22:24;7.70;99.90
4453;DHT22;2239;48.152;11.584;2024-02-28T12:24:50;7.70;99.90
4453;DHT22;2239;48.152;11.584;2024-02-28T12:27:16;7.70;99.90
4453;DHT22;2239;48.152;11.584;2024-02-28T12:29:41;7.80;99.90
4453;DHT22;2239;48.152;11.584;2024-02-28T12:32:07;7.70;99.90
4453;DHT22;2239;48.152;11.584;2024-02-28T12:34:33;7.70;99.90
4453;DHT22;2239;48.152;11.584;2024-02-28T12:36:59;7.60;99.90
4453;DHT22;2239;48.152;11.584;2024-02-28T12:39:25;7.70;99.90
4453;DHT22;2239;48.152;11.584;2024-02-28T12:41:50;7.70;99.90
4453;DHT22;2239;48.152;11.584;2024-02-28T12:44:16;7.70;99.90
4453;DHT22;2239;48.152;11.584;2024-02-28T12:46:42;7.60;99.90
4453;DHT22;2239;48.152;11.584;2024-02-28T12:49:07;7.60;99.90
4453;DHT22;2239;48.152;11.584;2024-02-28T12:51:38;7.50;99.90
4453;DHT22;2239;48.152;11.584;2024-02-28T12:54:04;7.50;99.90
4453;DHT22;2239;48.152;11.584;2024-02-28T12:56:30;7.60;99.90
4453;DHT22;2239;48.152;11.584;2024-02-28T12:58:55;7.70;99.90
4453;DHT22;2239;48.152;11.584;2024-02-28T13:01:21;7.80;99.90
4453;DHT22;2239;48.152;11.584;2024-02-28T13:03:46;7.90;99.90
4453;DHT22;2239;48.152;11.584;2024-02-28T13:06:14;7.90;99.90
4453;DHT22;2239;48.152;11.584;2024-02-28T13:08:40;7.90;99.90
4453;DHT22;2239;48.152;11.584;2024-02-28T13:11:06;7.90;99.90
4453;DHT22;2239;48.152;11.584;2024-02-28T13:13:32;7.90;99.90
4453;DHT22;2239;48.152;11.584;2024-02-28T13:15:58;7.90;99.90
4453;DHT22;2239;48.152;11.584;2024-02-28T13:18:24;7.90;99.90
4453;DHT22;2239;48.152;11.584;2024-02-28T13:20:51;8.00;99.90
4453;DHT22;2239;48.152;11.584;2024-02-28T13:23:17;8.00;99.90
4453;DHT22;2239;48.152;11.584;2024-02-28T13:25:44;8.00;99.90
4453;DHT22;2239;48.152;11.584;2024-02-28T13:28:10;7.90;99.90
4453;DHT22;2239;48.152;11.584;2024-02-28T13:30:35;7.80;99.90
4453;DHT22;2239;48.152;11.584;2024-02-28T13:33:03;7.80;99.90
4453;DHT22;2239;48.152;11.584;2024-02-28T13:35:29;7.80;99.90
4453;DHT22;2239;48.152;11.584;2024-02-28T13:37:56;7.90;99.90
4453;DHT22;2239;48.152;11.584;2024-02-28T13:40:26;7.80;99.90
4453;DHT22;2239;48.152;11.584;2024-02-28T13:42:51;7.80;99.90
4453;DHT22;2239;48.152;11.584;2024-02-28T13:45:17;7.80;99.90
4453;DHT22;2239;48.152;11.584;2024-02-28T13:47:43;7.70;99.90
4453;DHT22;2239;48.152;11.584;2024-02-28T13:50:08;7.60;99.90
4453;DHT22;2239;48.152;11.584;2024-02-28T13:52:35;7.60;99.90
4453;DHT22;2239;48.152;11.584;2024-02-28T13:55:00;7.50;99.90
4453;DHT22;2239;48.152;11.584;2024-02-28T13:57:26;7.40;99.90
4453;DHT22;2239;48.152;11.584;2024-02-28T13:59:51;7.50;99.90
4453;DHT22;2239;48.152;11.584;2024-02-28T14:02:23;7.50;99.90
4453;DHT22;2239;48.152;11.584;2024-02-28T14:04:52;7.50;99.90
4453;DHT22;2239;48.152;11.584;2024-02-28T14:07:18;7.50;99.90
4453;DHT22;2239;48.152;11.584;2024-02-28T14:09:43;7.70;99.90
4453;DHT22;2239;48.152;11.584;2024-02-28T14:12:10;7.80;99.90
4453;DHT22;2239;48.152;11.584;2024-02-28T14:14:36;7.80;99.90
4453;DHT22;2239;48.152;11.584;2024-02-28T14:17:01;7.80;99.90
4453;DHT22;2239;48.152;11.584;2024-02-28T14:19:28;7.80;99.90
4453;DHT22;2239;48.152;11.584;2024-02-28T14:21:54;7.90;99.90
4453;DHT22;2239;48.152;11.584;2024-02-28T14:24:19;7.90;99.90
4453;DHT22;2239;48.152;11.584;2024-02-28T14:26:45;7.90;99.90
4453;DHT22;2239;48.152;11.584;2024-02-28T14:29:11;7.90;99.90
4453;DHT22;2239;48.152;11.584;2024-02-28T14:31:37;8.00;99.90
4453;DHT22;2239;48.152;11.584;2024-02-28T14:34:02;7.90;99.90
4453;DHT22;2239;48.152;11.584;2024-02-28T14:36:30;7.70;99.90
4453;DHT22;2239;48.152;11.584;2024-02-28T14:38:56;7.60;99.90
4453;DHT22;2239;48.152;11.584;2024-02-28T14:41:21;7.60;99.90
4453;DHT22;2239;48.152;11.584;2024-02-28T14:43:48;7.60;99.90
4453;DHT22;2239;48.152;11.584;2024-02-28T14:46:13;7.60;99.90
4453;DHT22;2239;48.152;11.584;2024-02-28T14:48:40;7.70;99.90
4453;DHT22;2239;48.152;11.584;2024-02-28T14:51:08;7.70;99.90
4453;DHT22;2239;48.152;11.584;2024-02-28T14:53:34;7.70;99.90
4453;DHT22;2239;48.152;11.584;2024-02-28T14:56:00;7.60;99.90
4453;DHT22;2239;48.152;11.584;2024-02-28T14:58:25;7.60;99.90
4453;DHT22;2239;48.152;11.584;2024-02-28T15:00:51;7.60;99.90
4453;DHT22;2239;48.152;11.584;2024-02-28T15:03:16;7.50;99.90
4453;DHT22;2239;48.152;11.584;2024-02-28T15:05:42;7.30;99.90
4453;DHT22;2239;48.152;11.584;2024-02-28T15:08:09;7.30;99.90
4453;DHT22;2239;48.152;11.584;2024-02-28T15:10:35;7.30;99.90
4453;DHT22;2239;48.152;11.584;2024-02-28T15:13:00;7.40;99.90
4453;DHT22;2239;48.152;11.584;2024-02-28T15:15:26;7.40;99.90
4453;DHT22;2239;48.152;11.584;2024-02-28T15:17:53;7.40;99.90
4453;DHT22;2239;48.152;11.584;2024-02-28T15:20:18;7.50;99.90
4453;DHT22;2239;48.152;11.584;2024-02-28T15:22:45;7.50;99.90
4453;DHT22;2239;48.152;11.584;2024-02-28T15:25:11;7.40;99.90
4453;DHT22;2239;48.152;11.584;2024-02-28T15:27:37;7.40;99.90
4453;DHT22;2239;48.152;11.584;2024-02-28T15:30:03;7.40;99.90
4453;DHT22;2239;48.152;11.584;2024-02-28T15:32:30;7.40;99.90
4453;DHT22;2239;48.152;11.584;2024-02-28T15:34:57;7.40;99.90
4453;DHT22;2239;48.152;11.584;2024-02-28T15:37:23;7.50;99.90
4453;DHT22;2239;48.152;11.584;2024-02-28T15:39:48;7.50;99.90
4453;DHT22;2239;48.152;11.584;2024-02-28T15:42:15;7.50;99.90
4453;DHT22;2239;48.152;11.584;2024-02-28T15:44:41;7.50;99.90
4453;DHT22;2239;48.152;11.584;2024-02-28T15:47:07;7.60;99.90
4453;DHT22;2239;48.152;11.584;2024-02-28T15:49:34;7.50;99.90
4453;DHT22;2239;48.152;11.584;2024-02-28T15:52:00;7.60;99.90
4453;DHT22;2239;48.152;11.584;2024-02-28T15:54:26;7.50;99.90